sensor_id;sensor_type;location;lat;lon;timestamp;P1;durP1;ratioP1;P2;durP2;ratioP2
48777;SDS011;34578;0.000;0.000;2023-06-22T00:01:09;1.98;;;1.70;;
48777;SDS011;34578;0.000;0.000;2023-06-22T00:06:10;3.33;;;1.70;;
48777;SDS011;34578;0.000;0.000;2023-06-22T00:11:10;4.10;;;1.75;;
48777;SDS011;34578;0.000;0.000;2023-06-22T00:16:11;3.67;;;2.10;;
48777;SDS011;34578;0.000;0.000;2023-06-22T00:21:12;3.90;;;1.63;;
48777;SDS011;34578;0.000;0.000;2023-06-22T00:26:13;2.08;;;1.40;;
48777;SDS011;34578;0.000;0.000;2023-06-22T00:31:14;4.15;;;2.60;;
48777;SDS011;34578;0.000;0.000;2023-06-22T00:36:14;4.55;;;1.83;;
48777;SDS011;34578;0.000;0.000;2023-06-22T00:41:16;3.42;;;1.70;;
48777;SDS011;34578;0.000;0.000;2023-06-22T00:46:19;3.67;;;2.17;;
48777;SDS011;34578;0.000;0.000;2023-06-22T00:51:21;2.97;;;1.52;;
48777;SDS011;34578;0.000;0.000;2023-06-22T00:56:24;3.85;;;2.13;;
48777;SDS011;34578;0.000;0.000;2023-06-22T01:01:24;3.63;;;2.50;;
48777;SDS011;34578;0.000;0.000;2023-06-22T01:06:26;5.80;;;1.73;;
48777;SDS011;34578;0.000;0.000;2023-06-22T01:11:39;3.92;;;1.95;;
48777;SDS011;34578;0.000;0.000;2023-06-22T01:16:45;3.17;;;1.73;;
48777;SDS011;34578;0.000;0.000;2023-06-22T01:21:48;10.63;;;3.35;;
48777;SDS011;34578;0.000;0.000;2023-06-22T01:26:54;3.90;;;2.13;;
48777;SDS011;34578;0.000;0.000;2023-06-22T01:32:05;2.10;;;1.45;;
48777;SDS011;34578;0.000;0.000;2023-06-22T01:37:06;4.47;;;2.05;;
48777;SDS011;34578;0.000;0.000;2023-06-22T01:42:10;1.90;;;1.75;;
48777;SDS011;34578;0.000;0.000;2023-06-22T01:47:14;3.17;;;1.52;;
48777;SDS011;34578;0.000;0.000;2023-06-22T01:52:17;3.40;;;1.73;;
48777;SDS011;34578;0.000;0.000;2023-06-22T01:57:18;3.58;;;1.85;;
48777;SDS011;34578;0.000;0.000;2023-06-22T02:02:19;2.50;;;1.58;;
48777;SDS011;34578;0.000;0.000;2023-06-22T02:07:28;4.47;;;1.98;;
48777;SDS011;34578;0.000;0.000;2023-06-22T02:12:36;2.65;;;1.90;;
48777;SDS011;34578;0.000;0.000;2023-06-22T02:17:37;3.17;;;1.90;;
48777;SDS011;34578;0.000;0.000;2023-06-22T02:22:38;4.68;;;1.98;;
48777;SDS011;34578;0.000;0.000;2023-06-22T02:27:38;8.07;;;2.20;;
48777;SDS011;34578;0.000;0.000;2023-06-22T02:32:41;4.13;;;1.92;;
48777;SDS011;34578;0.000;0.000;2023-06-22T02:37:42;2.47;;;1.50;;
48777;SDS011;34578;0.000;0.000;2023-06-22T02:42:42;3.07;;;1.67;;
48777;SDS011;34578;0.000;0.000;2023-06-22T02:47:44;6.72;;;2.60;;
48777;SDS011;34578;0.000;0.000;2023-06-22T02:52:44;4.72;;;2.13;;
48777;SDS011;34578;0.000;0.000;2023-06-22T02:57:45;8.07;;;3.35;;
48777;SDS011;34578;0.000;0.000;2023-06-22T03:02:47;6.63;;;3.22;;
48777;SDS011;34578;0.000;0.000;2023-06-22T03:07:48;1.83;;;1.63;;
48777;SDS011;34578;0.000;0.000;2023-06-22T03:12:49;8.07;;;2.38;;
48777;SDS011;34578;0.000;0.000;2023-06-22T03:17:50;3.57;;;2.40;;
48777;SDS011;34578;0.000;0.000;2023-06-22T03:22:50;6.13;;;3.37;;
48777;SDS011;34578;0.000;0.000;2023-06-22T03:27:50;6.10;;;2.77;;
48777;SDS011;34578;0.000;0.000;2023-06-22T03:32:51;8.23;;;4.43;;
48777;SDS011;34578;0.000;0.000;2023-06-22T03:37:51;5.33;;;3.33;;
48777;SDS011;34578;0.000;0.000;2023-06-22T03:42:52;6.18;;;2.92;;
48777;SDS011;34578;0.000;0.000;2023-06-22T03:47:52;6.90;;;4.50;;
48777;SDS011;34578;0.000;0.000;2023-06-22T03:52:53;8.57;;;4.60;;
48777;SDS011;34578;0.000;0.000;2023-06-22T03:57:53;12.10;;;4.63;;
48777;SDS011;34578;0.000;0.000;2023-06-22T04:02:56;7.70;;;4.88;;
48777;SDS011;34578;0.000;0.000;2023-06-22T04:07:57;7.83;;;4.13;;
48777;SDS011;34578;0.000;0.000;2023-06-22T04:12:57;9.40;;;4.40;;
48777;SDS011;34578;0.000;0.000;2023-06-22T04:17:57;8.93;;;4.80;;
48777;SDS011;34578;0.000;0.000;2023-06-22T04:22:58;13.77;;;5.30;;
48777;SDS011;34578;0.000;0.000;2023-06-22T04:27:58;13.53;;;5.43;;
48777;SDS011;34578;0.000;0.000;2023-06-22T04:32:58;11.67;;;6.07;;
48777;SDS011;34578;0.000;0.000;2023-06-22T04:38:00;17.55;;;7.28;;
48777;SDS011;34578;0.000;0.000;2023-06-22T04:43:00;11.03;;;5.93;;
48777;SDS011;34578;0.000;0.000;2023-06-22T04:48:02;15.98;;;6.70;;
48777;SDS011;34578;0.000;0.000;2023-06-22T04:53:03;16.42;;;7.75;;
48777;SDS011;34578;0.000;0.000;2023-06-22T04:58:05;10.18;;;5.80;;
48777;SDS011;34578;0.000;0.000;2023-06-22T05:03:05;11.80;;;6.50;;
48777;SDS011;34578;0.000;0.000;2023-06-22T05:08:06;13.77;;;5.55;;
48777;SDS011;34578;0.000;0.000;2023-06-22T05:13:06;14.80;;;4.83;;
48777;SDS011;34578;0.000;0.000;2023-06-22T05:18:07;11.67;;;4.67;;
48777;SDS011;34578;0.000;0.000;2023-06-22T05:23:07;11.10;;;3.90;;
48777;SDS011;34578;0.000;0.000;2023-06-22T05:28:08;13.57;;;6.00;;
48777;SDS011;34578;0.000;0.000;2023-06-22T05:33:11;10.43;;;5.72;;
48777;SDS011;34578;0.000;0.000;2023-06-22T05:38:11;8.13;;;4.50;;
48777;SDS011;34578;0.000;0.000;2023-06-22T05:43:11;8.23;;;4.37;;
48777;SDS011;34578;0.000;0.000;2023-06-22T05:48:12;6.45;;;3.85;;
48777;SDS011;34578;0.000;0.000;2023-06-22T05:53:12;7.82;;;3.63;;
48777;SDS011;34578;0.000;0.000;2023-06-22T05:58:13;7.50;;;4.37;;
48777;SDS011;34578;0.000;0.000;2023-06-22T06:03:13;5.18;;;3.22;;
48777;SDS011;34578;0.000;0.000;2023-06-22T06:08:17;6.50;;;3.30;;
48777;SDS011;34578;0.000;0.000;2023-06-22T06:13:17;5.40;;;3.10;;
48777;SDS011;34578;0.000;0.000;2023-06-22T06:18:17;9.07;;;3.07;;
48777;SDS011;34578;0.000;0.000;2023-06-22T06:23:18;6.27;;;3.10;;
48777;SDS011;34578;0.000;0.000;2023-06-22T06:28:18;4.40;;;3.13;;
48777;SDS011;34578;0.000;0.000;2023-06-22T06:33:19;3.87;;;3.23;;
48777;SDS011;34578;0.000;0.000;2023-06-22T06:38:21;6.60;;;4.00;;
48777;SDS011;34578;0.000;0.000;2023-06-22T06:43:21;6.15;;;3.28;;
48777;SDS011;34578;0.000;0.000;2023-06-22T06:48:22;6.03;;;3.00;;
48777;SDS011;34578;0.000;0.000;2023-06-22T06:53:23;5.57;;;3.37;;
48777;SDS011;34578;0.000;0.000;2023-06-22T06:58:23;5.65;;;3.20;;
48777;SDS011;34578;0.000;0.000;2023-06-22T07:03:24;4.70;;;2.87;;
48777;SDS011;34578;0.000;0.000;2023-06-22T07:08:24;3.17;;;2.53;;
48777;SDS011;34578;0.000;0.000;2023-06-22T07:13:24;6.03;;;3.30;;
48777;SDS011;34578;0.000;0.000;2023-06-22T07:18:25;4.27;;;2.90;;
48777;SDS011;34578;0.000;0.000;2023-06-22T07:23:26;5.20;;;3.35;;
48777;SDS011;34578;0.000;0.000;2023-06-22T07:28:27;4.00;;;3.37;;
48777;SDS011;34578;0.000;0.000;2023-06-22T07:33:27;4.82;;;2.80;;
48777;SDS011;34578;0.000;0.000;2023-06-22T07:38:27;3.90;;;2.80;;
48777;SDS011;34578;0.000;0.000;2023-06-22T07:43:28;4.53;;;2.80;;
48777;SDS011;34578;0.000;0.000;2023-06-22T07:48:30;4.05;;;3.30;;
48777;SDS011;34578;0.000;0.000;2023-06-22T07:53:30;3.97;;;2.70;;
48777;SDS011;34578;0.000;0.000;2023-06-22T07:58:30;5.13;;;2.70;;
48777;SDS011;34578;0.000;0.000;2023-06-22T08:03:31;4.88;;;3.33;;
48777;SDS011;34578;0.000;0.000;2023-06-22T08:08:32;4.55;;;3.15;;
48777;SDS011;34578;0.000;0.000;2023-06-22T08:13:32;2.97;;;2.60;;
48777;SDS011;34578;0.000;0.000;2023-06-22T08:18:33;5.93;;;2.10;;
48777;SDS011;34578;0.000;0.000;2023-06-22T08:23:33;2.90;;;2.33;;
48777;SDS011;34578;0.000;0.000;2023-06-22T08:28:36;4.70;;;3.08;;
48777;SDS011;34578;0.000;0.000;2023-06-22T08:33:36;3.83;;;2.10;;
48777;SDS011;34578;0.000;0.000;2023-06-22T08:38:37;2.60;;;2.17;;
48777;SDS011;34578;0.000;0.000;2023-06-22T08:43:38;3.70;;;2.67;;
48777;SDS011;34578;0.000;0.000;2023-06-22T08:48:38;2.85;;;2.42;;
48777;SDS011;34578;0.000;0.000;2023-06-22T08:53:39;2.70;;;2.40;;
48777;SDS011;34578;0.000;0.000;2023-06-22T08:58:39;2.92;;;2.58;;
48777;SDS011;34578;0.000;0.000;2023-06-22T09:03:40;2.40;;;2.03;;
48777;SDS011;34578;0.000;0.000;2023-06-22T09:08:40;3.33;;;2.43;;
48777;SDS011;34578;0.000;0.000;2023-06-22T09:13:40;4.53;;;2.40;;
48777;SDS011;34578;0.000;0.000;2023-06-22T09:18:41;3.33;;;2.22;;
48777;SDS011;34578;0.000;0.000;2023-06-22T09:23:41;4.68;;;2.50;;
48777;SDS011;34578;0.000;0.000;2023-06-22T09:28:42;3.50;;;2.50;;
48777;SDS011;34578;0.000;0.000;2023-06-22T09:33:42;3.73;;;2.73;;
48777;SDS011;34578;0.000;0.000;2023-06-22T09:38:42;3.50;;;2.70;;
48777;SDS011;34578;0.000;0.000;2023-06-22T09:43:43;3.53;;;2.60;;
48777;SDS011;34578;0.000;0.000;2023-06-22T09:48:43;3.00;;;2.33;;
48777;SDS011;34578;0.000;0.000;2023-06-22T09:53:43;3.57;;;2.50;;
48777;SDS011;34578;0.000;0.000;2023-06-22T09:58:44;2.50;;;1.90;;
48777;SDS011;34578;0.000;0.000;2023-06-22T10:03:52;3.78;;;3.38;;
48777;SDS011;34578;0.000;0.000;2023-06-22T10:08:56;5.97;;;3.45;;
48777;SDS011;34578;0.000;0.000;2023-06-22T10:13:56;4.63;;;3.57;;
48777;SDS011;34578;0.000;0.000;2023-06-22T10:18:57;3.53;;;2.73;;
48777;SDS011;34578;0.000;0.000;2023-06-22T10:23:57;2.50;;;2.30;;
48777;SDS011;34578;0.000;0.000;2023-06-22T10:28:58;3.00;;;2.60;;
48777;SDS011;34578;0.000;0.000;2023-06-22T10:33:58;3.35;;;2.45;;
48777;SDS011;34578;0.000;0.000;2023-06-22T10:38:59;3.13;;;2.42;;
48777;SDS011;34578;0.000;0.000;2023-06-22T10:44:01;3.05;;;2.63;;
48777;SDS011;34578;0.000;0.000;2023-06-22T10:49:02;5.63;;;3.05;;
48777;SDS011;34578;0.000;0.000;2023-06-22T10:54:02;5.03;;;2.90;;
48777;SDS011;34578;0.000;0.000;2023-06-22T10:59:05;7.10;;;3.60;;
48777;SDS011;34578;0.000;0.000;2023-06-22T11:04:05;5.97;;;3.97;;
48777;SDS011;34578;0.000;0.000;2023-06-22T11:09:06;7.43;;;3.93;;
48777;SDS011;34578;0.000;0.000;2023-06-22T11:14:06;8.50;;;2.87;;
48777;SDS011;34578;0.000;0.000;2023-06-22T11:19:06;4.63;;;3.00;;
48777;SDS011;34578;0.000;0.000;2023-06-22T11:24:07;5.05;;;2.58;;
48777;SDS011;34578;0.000;0.000;2023-06-22T11:29:07;10.85;;;4.35;;
48777;SDS011;34578;0.000;0.000;2023-06-22T11:34:08;8.45;;;4.35;;
48777;SDS011;34578;0.000;0.000;2023-06-22T11:39:08;15.00;;;4.10;;
48777;SDS011;34578;0.000;0.000;2023-06-22T11:44:09;14.38;;;4.47;;
48777;SDS011;34578;0.000;0.000;2023-06-22T11:49:10;11.10;;;4.40;;
48777;SDS011;34578;0.000;0.000;2023-06-22T11:54:10;14.97;;;3.83;;
48777;SDS011;34578;0.000;0.000;2023-06-22T11:59:10;8.20;;;3.50;;
48777;SDS011;34578;0.000;0.000;2023-06-22T12:04:11;3.23;;;2.40;;
48777;SDS011;34578;0.000;0.000;2023-06-22T12:09:11;6.07;;;2.93;;
48777;SDS011;34578;0.000;0.000;2023-06-22T12:14:13;8.07;;;3.83;;
48777;SDS011;34578;0.000;0.000;2023-06-22T12:19:14;6.73;;;3.50;;
48777;SDS011;34578;0.000;0.000;2023-06-22T12:24:14;7.03;;;3.00;;
48777;SDS011;34578;0.000;0.000;2023-06-22T12:29:14;6.20;;;2.73;;
48777;SDS011;34578;0.000;0.000;2023-06-22T12:34:15;5.80;;;3.60;;
48777;SDS011;34578;0.000;0.000;2023-06-22T12:39:15;8.73;;;3.33;;
48777;SDS011;34578;0.000;0.000;2023-06-22T12:44:16;3.67;;;3.03;;
48777;SDS011;34578;0.000;0.000;2023-06-22T12:49:17;4.32;;;2.80;;
48777;SDS011;34578;0.000;0.000;2023-06-22T12:54:17;8.83;;;2.83;;
48777;SDS011;34578;0.000;0.000;2023-06-22T12:59:18;3.07;;;1.80;;
48777;SDS011;34578;0.000;0.000;2023-06-22T13:04:18;4.73;;;2.70;;
48777;SDS011;34578;0.000;0.000;2023-06-22T13:09:19;3.80;;;2.30;;
48777;SDS011;34578;0.000;0.000;2023-06-22T13:14:19;3.03;;;2.40;;
48777;SDS011;34578;0.000;0.000;2023-06-22T13:19:20;3.90;;;2.70;;
48777;SDS011;34578;0.000;0.000;2023-06-22T13:24:20;3.17;;;2.47;;
48777;SDS011;34578;0.000;0.000;2023-06-22T13:29:20;6.53;;;2.77;;
48777;SDS011;34578;0.000;0.000;2023-06-22T13:34:21;4.40;;;2.93;;
48777;SDS011;34578;0.000;0.000;2023-06-22T13:39:21;3.13;;;2.50;;
48777;SDS011;34578;0.000;0.000;2023-06-22T13:44:21;4.33;;;2.43;;
48777;SDS011;34578;0.000;0.000;2023-06-22T13:49:22;3.88;;;2.50;;
48777;SDS011;34578;0.000;0.000;2023-06-22T13:54:23;5.97;;;2.90;;
48777;SDS011;34578;0.000;0.000;2023-06-22T13:59:23;4.83;;;3.20;;
48777;SDS011;34578;0.000;0.000;2023-06-22T14:04:23;5.53;;;3.07;;
48777;SDS011;34578;0.000;0.000;2023-06-22T14:09:24;7.63;;;2.72;;
48777;SDS011;34578;0.000;0.000;2023-06-22T14:14:25;7.65;;;2.88;;
48777;SDS011;34578;0.000;0.000;2023-06-22T14:19:26;8.43;;;2.80;;
48777;SDS011;34578;0.000;0.000;2023-06-22T14:24:27;11.88;;;2.92;;
48777;SDS011;34578;0.000;0.000;2023-06-22T14:29:27;16.63;;;3.27;;
48777;SDS011;34578;0.000;0.000;2023-06-22T14:34:28;14.30;;;3.13;;
48777;SDS011;34578;0.000;0.000;2023-06-22T14:39:28;7.20;;;2.60;;
48777;SDS011;34578;0.000;0.000;2023-06-22T14:44:28;6.97;;;2.90;;
48777;SDS011;34578;0.000;0.000;2023-06-22T14:49:32;8.65;;;2.92;;
48777;SDS011;34578;0.000;0.000;2023-06-22T14:54:32;12.83;;;2.70;;
48777;SDS011;34578;0.000;0.000;2023-06-22T14:59:32;6.93;;;2.87;;
48777;SDS011;34578;0.000;0.000;2023-06-22T15:04:33;10.13;;;2.87;;
48777;SDS011;34578;0.000;0.000;2023-06-22T15:09:35;9.63;;;2.55;;
48777;SDS011;34578;0.000;0.000;2023-06-22T15:14:35;10.37;;;3.90;;
48777;SDS011;34578;0.000;0.000;2023-06-22T15:19:36;12.37;;;4.50;;
48777;SDS011;34578;0.000;0.000;2023-06-22T15:24:37;11.38;;;4.43;;
48777;SDS011;34578;0.000;0.000;2023-06-22T15:29:38;10.67;;;3.57;;
48777;SDS011;34578;0.000;0.000;2023-06-22T15:34:38;6.90;;;3.10;;
48777;SDS011;34578;0.000;0.000;2023-06-22T15:39:38;12.77;;;4.27;;
48777;SDS011;34578;0.000;0.000;2023-06-22T15:44:39;5.13;;;2.50;;
48777;SDS011;34578;0.000;0.000;2023-06-22T15:49:39;6.07;;;3.07;;
48777;SDS011;34578;0.000;0.000;2023-06-22T15:54:39;5.40;;;3.03;;
48777;SDS011;34578;0.000;0.000;2023-06-22T15:59:40;7.77;;;3.20;;
48777;SDS011;34578;0.000;0.000;2023-06-22T16:04:41;5.28;;;2.95;;
48777;SDS011;34578;0.000;0.000;2023-06-22T16:09:41;13.37;;;3.40;;
48777;SDS011;34578;0.000;0.000;2023-06-22T16:14:41;8.10;;;3.90;;
48777;SDS011;34578;0.000;0.000;2023-06-22T16:19:42;8.18;;;2.60;;
48777;SDS011;34578;0.000;0.000;2023-06-22T16:24:43;8.03;;;2.33;;
48777;SDS011;34578;0.000;0.000;2023-06-22T16:29:43;8.40;;;2.63;;
48777;SDS011;34578;0.000;0.000;2023-06-22T16:34:43;6.80;;;2.33;;
48777;SDS011;34578;0.000;0.000;2023-06-22T16:39:45;4.93;;;2.15;;
48777;SDS011;34578;0.000;0.000;2023-06-22T16:44:45;5.20;;;2.70;;
48777;SDS011;34578;0.000;0.000;2023-06-22T16:49:46;5.87;;;2.97;;
48777;SDS011;34578;0.000;0.000;2023-06-22T16:54:46;7.20;;;2.97;;
48777;SDS011;34578;0.000;0.000;2023-06-22T16:59:50;4.10;;;2.50;;
48777;SDS011;34578;0.000;0.000;2023-06-22T17:04:53;4.60;;;2.40;;
48777;SDS011;34578;0.000;0.000;2023-06-22T17:09:53;8.50;;;2.38;;
48777;SDS011;34578;0.000;0.000;2023-06-22T17:14:56;6.32;;;2.85;;
48777;SDS011;34578;0.000;0.000;2023-06-22T17:19:57;5.82;;;1.92;;
48777;SDS011;34578;0.000;0.000;2023-06-22T17:24:58;3.70;;;1.80;;
48777;SDS011;34578;0.000;0.000;2023-06-22T17:35:16;4.25;;;2.25;;
48777;SDS011;34578;0.000;0.000;2023-06-22T17:40:17;5.53;;;2.28;;
48777;SDS011;34578;0.000;0.000;2023-06-22T17:45:22;4.15;;;2.10;;
48777;SDS011;34578;0.000;0.000;2023-06-22T17:50:24;4.55;;;2.50;;
48777;SDS011;34578;0.000;0.000;2023-06-22T17:55:25;5.85;;;2.67;;
48777;SDS011;34578;0.000;0.000;2023-06-22T18:00:26;7.78;;;2.30;;
48777;SDS011;34578;0.000;0.000;2023-06-22T18:05:31;11.75;;;3.25;;
48777;SDS011;34578;0.000;0.000;2023-06-22T18:10:33;4.87;;;2.77;;
48777;SDS011;34578;0.000;0.000;2023-06-22T18:15:36;5.97;;;3.47;;
48777;SDS011;34578;0.000;0.000;2023-06-22T18:20:38;8.65;;;3.20;;
48777;SDS011;34578;0.000;0.000;2023-06-22T18:25:39;6.88;;;3.22;;
48777;SDS011;34578;0.000;0.000;2023-06-22T18:30:45;7.95;;;2.40;;
48777;SDS011;34578;0.000;0.000;2023-06-22T18:35:47;7.30;;;2.55;;
48777;SDS011;34578;0.000;0.000;2023-06-22T18:40:52;4.65;;;2.20;;
48777;SDS011;34578;0.000;0.000;2023-06-22T18:45:52;5.25;;;1.88;;
48777;SDS011;34578;0.000;0.000;2023-06-22T18:50:53;4.30;;;1.70;;
48777;SDS011;34578;0.000;0.000;2023-06-22T18:56:11;2.88;;;1.80;;
48777;SDS011;34578;0.000;0.000;2023-06-22T19:01:16;3.38;;;1.90;;
48777;SDS011;34578;0.000;0.000;2023-06-22T19:12:15;6.50;;;2.58;;
48777;SDS011;34578;0.000;0.000;2023-06-22T19:17:22;1.90;;;1.58;;
48777;SDS011;34578;0.000;0.000;2023-06-22T19:22:37;2.95;;;1.98;;
48777;SDS011;34578;0.000;0.000;2023-06-22T19:27:44;3.70;;;1.80;;
48777;SDS011;34578;0.000;0.000;2023-06-22T19:32:46;6.88;;;2.47;;
48777;SDS011;34578;0.000;0.000;2023-06-22T19:37:47;3.95;;;1.80;;
48777;SDS011;34578;0.000;0.000;2023-06-22T19:42:52;3.03;;;1.90;;
48777;SDS011;34578;0.000;0.000;2023-06-22T19:47:53;4.20;;;2.20;;
48777;SDS011;34578;0.000;0.000;2023-06-22T19:52:53;5.10;;;2.30;;
48777;SDS011;34578;0.000;0.000;2023-06-22T19:57:53;3.20;;;1.90;;
48777;SDS011;34578;0.000;0.000;2023-06-22T20:02:54;4.40;;;2.60;;
48777;SDS011;34578;0.000;0.000;2023-06-22T20:07:54;4.15;;;2.22;;
48777;SDS011;34578;0.000;0.000;2023-06-22T20:12:55;4.83;;;2.50;;
48777;SDS011;34578;0.000;0.000;2023-06-22T20:17:56;4.80;;;2.33;;
48777;SDS011;34578;0.000;0.000;2023-06-22T20:23:00;5.55;;;2.60;;
48777;SDS011;34578;0.000;0.000;2023-06-22T20:28:05;5.03;;;2.65;;
48777;SDS011;34578;0.000;0.000;2023-06-22T20:33:15;4.97;;;2.58;;
48777;SDS011;34578;0.000;0.000;2023-06-22T20:38:16;2.83;;;2.03;;
48777;SDS011;34578;0.000;0.000;2023-06-22T20:43:22;7.30;;;2.50;;
48777;SDS011;34578;0.000;0.000;2023-06-22T20:48:23;7.18;;;2.10;;
48777;SDS011;34578;0.000;0.000;2023-06-22T20:53:24;3.80;;;2.08;;
48777;SDS011;34578;0.000;0.000;2023-06-22T20:58:24;3.10;;;2.10;;
48777;SDS011;34578;0.000;0.000;2023-06-22T21:03:25;1.93;;;1.30;;
48777;SDS011;34578;0.000;0.000;2023-06-22T21:08:25;3.60;;;2.17;;
48777;SDS011;34578;0.000;0.000;2023-06-22T21:13:26;2.30;;;1.70;;
48777;SDS011;34578;0.000;0.000;2023-06-22T21:18:26;2.37;;;1.67;;
48777;SDS011;34578;0.000;0.000;2023-06-22T21:23:26;2.57;;;1.70;;
48777;SDS011;34578;0.000;0.000;2023-06-22T21:28:27;2.27;;;1.93;;
48777;SDS011;34578;0.000;0.000;2023-06-22T21:33:27;2.07;;;1.50;;
48777;SDS011;34578;0.000;0.000;2023-06-22T21:38:27;1.67;;;1.40;;
48777;SDS011;34578;0.000;0.000;2023-06-22T21:43:28;3.13;;;1.30;;
48777;SDS011;34578;0.000;0.000;2023-06-22T21:48:28;3.87;;;1.80;;
48777;SDS011;34578;0.000;0.000;2023-06-22T21:53:28;2.43;;;1.90;;
48777;SDS011;34578;0.000;0.000;2023-06-22T21:58:29;2.70;;;1.47;;
48777;SDS011;34578;0.000;0.000;2023-06-22T22:03:29;1.70;;;1.43;;
48777;SDS011;34578;0.000;0.000;2023-06-22T22:08:29;3.17;;;1.50;;
48777;SDS011;34578;0.000;0.000;2023-06-22T22:13:30;2.00;;;1.20;;
48777;SDS011;34578;0.000;0.000;2023-06-22T22:18:32;2.92;;;1.80;;
48777;SDS011;34578;0.000;0.000;2023-06-22T22:23:34;2.47;;;1.25;;
48777;SDS011;34578;0.000;0.000;2023-06-22T22:28:35;1.70;;;1.40;;
48777;SDS011;34578;0.000;0.000;2023-06-22T22:33:36;3.20;;;1.40;;
48777;SDS011;34578;0.000;0.000;2023-06-22T22:38:36;1.37;;;1.13;;
48777;SDS011;34578;0.000;0.000;2023-06-22T22:43:40;1.48;;;1.20;;
48777;SDS011;34578;0.000;0.000;2023-06-22T22:48:40;1.13;;;0.90;;
48777;SDS011;34578;0.000;0.000;2023-06-22T22:53:41;0.93;;;0.82;;
48777;SDS011;34578;0.000;0.000;2023-06-22T22:58:42;1.27;;;0.98;;
48777;SDS011;34578;0.000;0.000;2023-06-22T23:03:42;3.70;;;1.00;;
48777;SDS011;34578;0.000;0.000;2023-06-22T23:08:43;2.17;;;1.00;;
48777;SDS011;34578;0.000;0.000;2023-06-22T23:13:43;1.80;;;1.30;;
48777;SDS011;34578;0.000;0.000;2023-06-22T23:18:44;1.37;;;0.90;;
48777;SDS011;34578;0.000;0.000;2023-06-22T23:23:44;1.20;;;1.00;;
48777;SDS011;34578;0.000;0.000;2023-06-22T23:28:44;1.53;;;0.83;;
48777;SDS011;34578;0.000;0.000;2023-06-22T23:33:45;2.63;;;1.07;;
48777;SDS011;34578;0.000;0.000;2023-06-22T23:38:45;4.43;;;1.10;;
48777;SDS011;34578;0.000;0.000;2023-06-22T23:43:45;1.57;;;1.03;;
48777;SDS011;34578;0.000;0.000;2023-06-22T23:48:46;2.47;;;0.83;;
48777;SDS011;34578;0.000;0.000;2023-06-22T23:53:47;3.80;;;0.90;;
48777;SDS011;34578;0.000;0.000;2023-06-22T23:58:51;0.83;;;0.73;;
